createdAt,value
2017-11-29T00:00:15.148Z,15.20
2017-11-29T00:02:42.764Z,15.10
2017-11-29T00:05:10.361Z,15.53
2017-11-29T00:07:38.756Z,16.00
2017-11-29T00:10:06.393Z,16.20
2017-11-29T00:12:52.273Z,16.63
2017-11-29T00:15:20.734Z,16.00
2017-11-29T00:17:48.407Z,15.30
2017-11-29T00:20:16.040Z,16.27
2017-11-29T00:22:43.710Z,16.80
2017-11-29T00:25:11.335Z,16.40
2017-11-29T00:27:38.970Z,17.10
2017-11-29T00:30:06.602Z,17.20
2017-11-29T00:32:34.223Z,15.30
2017-11-29T00:35:01.862Z,17.07
2017-11-29T00:37:30.249Z,15.87
2017-11-29T00:39:58.623Z,16.07
2017-11-29T00:42:27.003Z,16.37
2017-11-29T00:44:55.400Z,14.70
2017-11-29T00:47:23.772Z,14.93
2017-11-29T00:49:52.151Z,15.73
2017-11-29T00:52:20.588Z,16.20
2017-11-29T00:54:48.230Z,16.40
2017-11-29T00:57:15.830Z,16.37
2017-11-29T00:59:43.448Z,15.83
2017-11-29T01:02:11.074Z,15.53
2017-11-29T01:04:39.437Z,15.63
2017-11-29T01:07:07.063Z,16.57
2017-11-29T01:09:34.703Z,16.53
2017-11-29T01:12:02.309Z,15.73
2017-11-29T01:14:29.961Z,14.63
2017-11-29T01:16:57.631Z,16.00
2017-11-29T01:19:25.290Z,15.43
2017-11-29T01:21:52.906Z,14.83
2017-11-29T01:24:20.543Z,15.33
2017-11-29T01:26:48.159Z,15.10
2017-11-29T01:29:15.848Z,16.27
2017-11-29T01:31:43.445Z,15.83
2017-11-29T01:34:12.394Z,15.73
2017-11-29T01:36:40.005Z,16.70
2017-11-29T01:39:08.396Z,14.73
2017-11-29T01:41:36.769Z,15.57
2017-11-29T01:44:05.179Z,14.77
2017-11-29T01:46:32.801Z,13.57
2017-11-29T01:49:01.178Z,15.30
2017-11-29T01:51:29.607Z,15.13
2017-11-29T01:53:57.370Z,15.27
2017-11-29T01:56:24.981Z,14.77
2017-11-29T01:58:52.605Z,15.97
2017-11-29T02:01:20.231Z,14.53
2017-11-29T02:03:48.595Z,15.07
2017-11-29T02:06:26.866Z,15.70
2017-11-29T02:08:54.486Z,15.97
2017-11-29T02:11:22.118Z,16.60
2017-11-29T02:13:49.736Z,16.60
2017-11-29T02:16:17.435Z,15.10
2017-11-29T02:18:45.056Z,14.87
2017-11-29T02:21:12.717Z,16.27
2017-11-29T02:23:40.340Z,15.73
2017-11-29T02:26:08.736Z,14.20
2017-11-29T02:28:37.088Z,15.57
2017-11-29T02:31:04.735Z,15.43
2017-11-29T02:33:32.328Z,14.97
2017-11-29T02:36:00.743Z,14.80
2017-11-29T02:38:28.354Z,14.40
2017-11-29T02:41:07.861Z,15.30
2017-11-29T02:43:35.481Z,15.77
2017-11-29T02:46:03.852Z,15.73
2017-11-29T02:48:32.227Z,16.80
2017-11-29T02:50:59.828Z,15.93
2017-11-29T02:53:27.408Z,14.57
2017-11-29T02:55:55.061Z,15.20
2017-11-29T02:58:22.665Z,15.07
2017-11-29T03:00:50.268Z,14.47
2017-11-29T03:03:17.872Z,14.20
2017-11-29T03:05:45.543Z,13.67
2017-11-29T03:08:13.187Z,14.10
2017-11-29T03:10:41.572Z,12.73
2017-11-29T03:13:09.183Z,14.10
2017-11-29T03:15:37.556Z,12.93
2017-11-29T03:18:05.932Z,13.83
2017-11-29T03:20:34.316Z,13.70
2017-11-29T03:23:02.703Z,13.87
2017-11-29T03:25:31.075Z,13.77
2017-11-29T03:27:59.476Z,12.73
2017-11-29T03:30:27.086Z,13.60
2017-11-29T03:32:54.736Z,12.97
2017-11-29T03:35:22.343Z,13.87
2017-11-29T03:37:50.000Z,15.20
2017-11-29T03:40:18.369Z,13.30
2017-11-29T03:42:45.996Z,13.30
2017-11-29T03:45:13.650Z,12.77
2017-11-29T03:47:41.288Z,12.97
2017-11-29T03:50:08.904Z,13.87
2017-11-29T03:52:36.544Z,13.10
2017-11-29T03:55:04.173Z,12.73
2017-11-29T03:57:32.651Z,14.50
2017-11-29T04:00:01.048Z,14.10
2017-11-29T04:02:28.696Z,13.33
2017-11-29T04:04:57.201Z,13.83
2017-11-29T04:07:24.809Z,14.17
2017-11-29T04:09:52.451Z,14.47
2017-11-29T04:12:21.432Z,14.17
2017-11-29T04:14:49.046Z,13.57
2017-11-29T04:17:17.409Z,13.03
2017-11-29T04:19:45.064Z,13.43
2017-11-29T04:22:12.667Z,13.30
2017-11-29T04:24:40.268Z,13.50
2017-11-29T04:27:07.891Z,13.73
2017-11-29T04:29:35.502Z,13.97
2017-11-29T04:32:03.117Z,13.37
2017-11-29T04:34:30.731Z,13.93
2017-11-29T04:36:58.370Z,12.27
2017-11-29T04:39:25.992Z,11.63
2017-11-29T04:41:54.361Z,12.73
2017-11-29T04:44:22.780Z,13.37
2017-11-29T04:46:50.383Z,13.10
2017-11-29T04:49:18.009Z,12.87
2017-11-29T04:51:45.608Z,12.77
2017-11-29T04:54:13.349Z,13.23
2017-11-29T04:56:41.702Z,13.07
2017-11-29T04:59:09.306Z,15.03
2017-11-29T05:01:36.952Z,14.73
2017-11-29T05:04:04.556Z,16.33
2017-11-29T05:06:32.922Z,14.60
2017-11-29T05:09:00.520Z,13.63
2017-11-29T05:11:28.116Z,15.20
2017-11-29T05:13:55.739Z,13.53
2017-11-29T05:16:24.096Z,14.77
2017-11-29T05:18:52.723Z,14.33
2017-11-29T05:21:20.343Z,14.40
2017-11-29T05:23:48.711Z,14.60
2017-11-29T05:26:16.329Z,13.90
2017-11-29T05:28:44.752Z,13.73
2017-11-29T05:31:12.383Z,15.17
2017-11-29T05:33:39.979Z,14.83
2017-11-29T05:36:07.596Z,14.70
2017-11-29T05:38:35.322Z,14.20
2017-11-29T05:41:03.775Z,14.77
2017-11-29T05:43:31.391Z,14.37
2017-11-29T05:45:59.003Z,13.93
2017-11-29T05:48:26.620Z,14.87
2017-11-29T05:50:54.515Z,16.50
2017-11-29T05:53:22.403Z,16.00
2017-11-29T05:55:50.168Z,15.47
2017-11-29T05:58:17.887Z,16.67
2017-11-29T06:00:45.489Z,15.70
2017-11-29T06:03:13.134Z,15.73
2017-11-29T06:05:40.788Z,16.83
2017-11-29T06:08:08.392Z,16.23
2017-11-29T06:10:36.024Z,16.50
2017-11-29T06:13:03.622Z,17.13
2017-11-29T06:15:31.227Z,18.20
2017-11-29T06:17:58.833Z,17.03
2017-11-29T06:20:26.435Z,16.63
2017-11-29T06:22:54.013Z,15.07
2017-11-29T06:25:21.640Z,15.63
2017-11-29T06:27:50.091Z,15.60
2017-11-29T06:30:17.719Z,22.27
2017-11-29T06:32:45.318Z,14.37
2017-11-29T06:35:13.019Z,14.67
2017-11-29T06:37:41.409Z,15.73
2017-11-29T06:40:09.058Z,15.83
2017-11-29T06:42:37.432Z,15.77
2017-11-29T06:45:05.895Z,15.77
2017-11-29T06:47:33.519Z,15.60
2017-11-29T06:50:01.131Z,16.33
2017-11-29T06:52:28.777Z,15.93
2017-11-29T06:54:56.381Z,15.67
2017-11-29T06:57:24.763Z,15.33
2017-11-29T06:59:52.376Z,16.30
2017-11-29T07:02:20.011Z,14.33
2017-11-29T07:04:47.647Z,16.20
2017-11-29T07:07:15.304Z,14.57
2017-11-29T07:09:42.940Z,14.57
2017-11-29T07:12:10.634Z,14.70
2017-11-29T07:14:38.294Z,15.73
2017-11-29T07:17:06.676Z,15.43
2017-11-29T07:19:35.121Z,15.50
2017-11-29T07:22:03.372Z,16.13
2017-11-29T07:24:30.972Z,14.73
2017-11-29T07:26:58.563Z,14.57
2017-11-29T07:29:26.197Z,15.63
2017-11-29T07:31:53.837Z,15.20
2017-11-29T07:34:21.580Z,15.50
2017-11-29T07:36:49.189Z,17.57
2017-11-29T07:39:16.813Z,16.47
2017-11-29T07:41:44.486Z,18.07
2017-11-29T07:44:12.106Z,18.00
2017-11-29T07:46:39.721Z,18.03
2017-11-29T07:49:07.363Z,19.83
2017-11-29T07:51:35.023Z,19.97
2017-11-29T07:54:02.684Z,18.53
2017-11-29T07:56:30.358Z,17.40
2017-11-29T07:58:57.979Z,17.83
2017-11-29T08:01:25.625Z,18.17
2017-11-29T08:03:54.007Z,19.43
2017-11-29T08:06:21.645Z,18.90
2017-11-29T08:08:49.288Z,20.37
2017-11-29T08:11:16.988Z,19.73
2017-11-29T08:13:45.367Z,20.17
2017-11-29T08:16:13.768Z,19.50
2017-11-29T08:18:42.155Z,18.10
2017-11-29T08:21:09.786Z,19.87
2017-11-29T08:23:37.422Z,20.60
2017-11-29T08:26:05.795Z,23.57
2017-11-29T08:28:33.423Z,19.00
2017-11-29T08:31:01.032Z,18.67
2017-11-29T08:33:28.767Z,20.70
2017-11-29T08:35:56.364Z,20.60
2017-11-29T08:38:24.051Z,22.20
2017-11-29T08:40:52.421Z,23.70
2017-11-29T08:43:20.856Z,23.67
2017-11-29T08:45:48.493Z,23.77
2017-11-29T08:48:16.917Z,21.90
2017-11-29T08:50:44.605Z,21.03
2017-11-29T08:53:12.204Z,21.00
2017-11-29T08:55:39.826Z,20.83
2017-11-29T08:58:07.436Z,20.77
2017-11-29T09:00:35.070Z,20.60
2017-11-29T09:03:03.439Z,20.03
2017-11-29T09:05:31.047Z,17.77
2017-11-29T09:07:58.693Z,18.67
2017-11-29T09:10:26.317Z,20.47
2017-11-29T09:12:53.920Z,22.03
2017-11-29T09:15:21.519Z,17.93
2017-11-29T09:17:49.120Z,19.43
2017-11-29T09:20:17.506Z,17.93
2017-11-29T09:22:45.956Z,18.50
2017-11-29T09:25:13.533Z,16.33
2017-11-29T09:27:41.148Z,15.70
2017-11-29T09:30:08.763Z,17.73
2017-11-29T09:32:37.228Z,13.87
2017-11-29T09:35:04.819Z,14.07
2017-11-29T09:37:33.220Z,14.27
2017-11-29T09:40:00.804Z,11.80
2017-11-29T09:42:28.415Z,11.43
2017-11-29T09:44:56.763Z,14.00
2017-11-29T09:47:24.372Z,12.90
2017-11-29T09:49:52.057Z,14.03
2017-11-29T09:52:19.665Z,12.93
2017-11-29T09:54:47.238Z,13.13
2017-11-29T09:57:15.606Z,12.13
2017-11-29T09:59:43.281Z,13.40
2017-11-29T10:02:11.640Z,10.33
2017-11-29T10:04:39.225Z,12.30
2017-11-29T10:07:07.589Z,10.70
2017-11-29T10:09:36.003Z,10.27
2017-11-29T10:12:03.584Z,12.53
2017-11-29T10:14:31.208Z,11.80
2017-11-29T10:16:59.564Z,11.40
2017-11-29T10:19:27.258Z,10.90
2017-11-29T10:21:55.612Z,8.80
2017-11-29T10:24:23.229Z,14.67
2017-11-29T10:26:50.823Z,11.93
2017-11-29T10:29:18.453Z,9.13
2017-11-29T10:31:47.227Z,8.00
2017-11-29T10:34:14.863Z,7.60
2017-11-29T10:36:43.231Z,7.33
2017-11-29T10:39:10.831Z,7.47
2017-11-29T10:41:38.447Z,8.33
2017-11-29T10:44:06.057Z,7.70
2017-11-29T10:46:33.651Z,6.43
2017-11-29T10:49:02.027Z,6.00
2017-11-29T10:51:29.625Z,7.03
2017-11-29T10:53:58.060Z,5.53
2017-11-29T10:56:25.659Z,5.53
2017-11-29T10:58:53.235Z,5.83
2017-11-29T11:01:21.633Z,5.50
2017-11-29T11:03:50.015Z,5.33
2017-11-29T11:06:18.390Z,4.80
2017-11-29T11:08:46.744Z,4.70
2017-11-29T11:11:14.392Z,3.97
2017-11-29T11:13:41.983Z,3.57
2017-11-29T11:16:10.368Z,4.10
2017-11-29T11:18:38.719Z,4.10
2017-11-29T11:21:06.336Z,4.23
2017-11-29T11:23:33.932Z,4.30
2017-11-29T11:26:02.339Z,4.23
2017-11-29T11:28:29.963Z,3.93
2017-11-29T11:30:57.564Z,4.20
2017-11-29T11:33:25.182Z,4.07
2017-11-29T11:35:52.782Z,4.10
2017-11-29T11:38:20.380Z,4.03
2017-11-29T11:40:47.971Z,3.00
2017-11-29T11:43:15.580Z,3.33
2017-11-29T11:45:43.968Z,2.63
2017-11-29T11:48:12.320Z,3.20
2017-11-29T11:50:40.832Z,3.57
2017-11-29T11:53:09.248Z,3.60
2017-11-29T11:55:36.871Z,3.50
2017-11-29T11:58:05.315Z,3.57
2017-11-29T12:00:32.945Z,3.97
2017-11-29T12:03:00.531Z,4.10
2017-11-29T12:05:28.143Z,4.87
2017-11-29T12:07:56.538Z,5.10
2017-11-29T12:10:24.155Z,4.40
2017-11-29T12:12:52.340Z,5.83
2017-11-29T12:15:20.736Z,4.23
2017-11-29T12:17:49.119Z,4.13
2017-11-29T12:20:17.544Z,4.13
2017-11-29T12:22:45.146Z,4.80
2017-11-29T12:25:13.524Z,4.33
2017-11-29T12:27:41.872Z,4.53
2017-11-29T12:30:09.503Z,4.60
2017-11-29T12:32:37.091Z,4.53
2017-11-29T12:35:04.733Z,4.33
2017-11-29T12:37:32.375Z,4.93
2017-11-29T12:40:00.029Z,4.63
2017-11-29T12:42:28.418Z,3.70
2017-11-29T12:44:56.095Z,4.10
2017-11-29T12:47:23.683Z,3.70
2017-11-29T12:50:03.891Z,4.00
2017-11-29T12:52:32.267Z,3.87
2017-11-29T12:55:00.629Z,4.33
2017-11-29T12:57:28.242Z,5.00
2017-11-29T12:59:55.864Z,4.17
2017-11-29T13:02:24.565Z,4.43
2017-11-29T13:04:52.236Z,11.10
2017-11-29T13:07:19.956Z,14.07
2017-11-29T13:09:47.547Z,5.80
2017-11-29T13:12:15.939Z,8.93
2017-11-29T13:14:44.315Z,4.60
2017-11-29T13:17:11.928Z,6.30
2017-11-29T13:19:39.533Z,4.50
2017-11-29T13:22:07.896Z,4.00
2017-11-29T13:24:35.483Z,4.00
2017-11-29T13:27:03.091Z,3.83
2017-11-29T13:29:30.724Z,4.10
2017-11-29T13:31:58.311Z,4.40
2017-11-29T13:34:25.904Z,3.93
2017-11-29T13:36:53.503Z,4.20
2017-11-29T13:39:21.137Z,4.90
2017-11-29T13:41:49.546Z,4.77
2017-11-29T13:44:17.158Z,4.30
2017-11-29T13:46:44.757Z,4.33
2017-11-29T13:49:13.135Z,4.40
2017-11-29T13:51:41.604Z,3.60
2017-11-29T13:54:09.961Z,3.80
2017-11-29T13:56:37.561Z,3.97
2017-11-29T13:59:05.212Z,3.47
2017-11-29T14:01:33.616Z,4.10
2017-11-29T14:04:01.220Z,3.60
2017-11-29T14:06:28.860Z,3.30
2017-11-29T14:08:56.677Z,7.97
2017-11-29T14:11:25.050Z,5.63
2017-11-29T14:13:52.640Z,4.17
2017-11-29T14:16:20.260Z,4.13
2017-11-29T14:18:47.842Z,3.60
2017-11-29T14:21:16.226Z,3.83
2017-11-29T14:23:44.587Z,3.90
2017-11-29T14:26:12.204Z,4.37
2017-11-29T14:28:39.811Z,4.00
2017-11-29T14:31:07.414Z,4.40
2017-11-29T14:33:35.015Z,3.50
2017-11-29T14:36:03.380Z,3.50
2017-11-29T14:38:30.999Z,3.50
2017-11-29T14:40:59.364Z,4.00
2017-11-29T14:43:26.992Z,3.30
2017-11-29T14:45:54.630Z,3.40
2017-11-29T14:48:22.231Z,3.20
2017-11-29T14:50:49.881Z,2.83
2017-11-29T14:53:18.252Z,3.10
2017-11-29T14:55:45.864Z,3.33
2017-11-29T14:58:14.226Z,2.70
2017-11-29T15:00:41.838Z,3.83
2017-11-29T15:03:09.428Z,3.23
2017-11-29T15:05:37.037Z,3.03
2017-11-29T15:08:05.428Z,3.97
2017-11-29T15:10:33.040Z,9.30
2017-11-29T15:13:02.290Z,3.70
2017-11-29T15:15:29.901Z,3.60
2017-11-29T15:17:57.505Z,2.97
2017-11-29T15:20:25.891Z,3.47
2017-11-29T15:22:53.523Z,3.40
2017-11-29T15:25:21.165Z,2.87
2017-11-29T15:27:48.771Z,3.00
2017-11-29T15:30:17.145Z,2.87
2017-11-29T15:32:45.494Z,2.60
2017-11-29T15:35:13.116Z,3.10
2017-11-29T15:37:40.685Z,3.40
2017-11-29T15:40:08.286Z,3.40
2017-11-29T15:42:35.883Z,4.27
2017-11-29T15:45:03.493Z,3.53
2017-11-29T15:47:31.067Z,6.60
2017-11-29T15:50:00.196Z,5.17
2017-11-29T15:52:28.542Z,4.93
2017-11-29T15:54:56.211Z,3.57
2017-11-29T15:57:23.791Z,3.90
2017-11-29T15:59:53.801Z,3.60
2017-11-29T16:02:22.172Z,3.50
2017-11-29T16:04:49.763Z,4.20
2017-11-29T16:07:18.165Z,4.00
2017-11-29T16:09:45.792Z,4.57
2017-11-29T16:12:14.173Z,4.07
2017-11-29T16:14:42.573Z,4.57
2017-11-29T16:17:10.955Z,4.13
2017-11-29T16:19:38.559Z,4.67
2017-11-29T16:22:06.154Z,5.33
2017-11-29T16:24:34.552Z,5.97
2017-11-29T16:27:02.174Z,5.63
2017-11-29T16:29:29.820Z,7.90
2017-11-29T16:31:58.923Z,6.17
2017-11-29T16:34:27.403Z,6.03
2017-11-29T16:36:55.010Z,10.17
2017-11-29T16:39:22.659Z,6.27
2017-11-29T16:41:50.265Z,5.00
2017-11-29T16:44:17.909Z,5.70
2017-11-29T16:46:45.594Z,6.10
2017-11-29T16:49:13.198Z,6.43
2017-11-29T16:51:40.783Z,6.83
2017-11-29T16:54:09.178Z,5.60
2017-11-29T16:56:36.803Z,7.67
2017-11-29T16:59:05.172Z,7.03
2017-11-29T17:01:32.793Z,5.93
2017-11-29T17:04:00.447Z,6.47
2017-11-29T17:06:28.074Z,7.07
2017-11-29T17:08:55.702Z,8.07
2017-11-29T17:11:23.296Z,7.57
2017-11-29T17:13:51.105Z,5.07
2017-11-29T17:16:19.450Z,5.97
2017-11-29T17:18:47.060Z,4.47
2017-11-29T17:21:14.671Z,6.40
2017-11-29T17:23:42.300Z,4.20
2017-11-29T17:26:10.718Z,4.17
2017-11-29T17:28:38.332Z,4.20
2017-11-29T17:31:05.941Z,5.67
2017-11-29T17:33:33.555Z,5.90
2017-11-29T17:36:01.160Z,4.20
2017-11-29T17:38:28.867Z,5.10
2017-11-29T17:40:56.467Z,4.80
2017-11-29T17:43:24.065Z,5.07
2017-11-29T17:45:52.447Z,3.87
2017-11-29T17:48:20.828Z,4.40
2017-11-29T17:50:49.220Z,6.20
2017-11-29T17:53:16.808Z,4.60
2017-11-29T17:55:44.440Z,6.10
2017-11-29T17:58:12.050Z,5.20
2017-11-29T18:00:39.659Z,9.80
2017-11-29T18:03:07.282Z,6.87
2017-11-29T18:05:34.871Z,5.70
2017-11-29T18:08:03.251Z,5.63
2017-11-29T18:10:30.874Z,10.53
2017-11-29T18:12:58.604Z,18.57
2017-11-29T18:15:26.209Z,18.03
2017-11-29T18:17:53.838Z,17.03
2017-11-29T18:20:22.204Z,11.20
2017-11-29T18:22:49.790Z,6.07
2017-11-29T18:25:17.420Z,10.00
2017-11-29T18:27:45.027Z,10.90
2017-11-29T18:30:12.643Z,5.87
2017-11-29T18:32:40.244Z,7.43
2017-11-29T18:35:07.931Z,5.57
2017-11-29T18:37:36.508Z,10.40
2017-11-29T18:40:04.908Z,13.10
2017-11-29T18:42:32.502Z,16.20
2017-11-29T18:45:00.116Z,13.27
2017-11-29T18:47:27.801Z,13.50
2017-11-29T18:49:55.434Z,14.43
2017-11-29T18:52:23.782Z,9.27
2017-11-29T18:54:51.405Z,6.37
2017-11-29T18:57:19.107Z,6.23
2017-11-29T18:59:46.727Z,9.37
2017-11-29T19:02:14.502Z,12.60
2017-11-29T19:04:42.139Z,11.87
2017-11-29T19:07:09.762Z,9.67
2017-11-29T19:09:38.479Z,15.57
2017-11-29T19:12:06.081Z,11.50
2017-11-29T19:14:33.728Z,14.27
2017-11-29T19:17:01.497Z,15.10
2017-11-29T19:19:29.400Z,10.43
2017-11-29T19:21:57.303Z,8.40
2017-11-29T19:24:25.185Z,8.60
2017-11-29T19:26:53.096Z,7.07
2017-11-29T19:29:20.977Z,7.23
2017-11-29T19:31:48.918Z,8.00
2017-11-29T19:34:17.602Z,10.70
2017-11-29T19:36:46.400Z,12.20
2017-11-29T19:39:15.103Z,12.30
2017-11-29T19:41:43.011Z,12.47
2017-11-29T19:44:10.937Z,18.63
2017-11-29T19:46:38.811Z,20.87
2017-11-29T19:49:06.781Z,19.13
2017-11-29T19:51:34.724Z,17.57
2017-11-29T19:54:02.634Z,15.03
2017-11-29T19:56:30.533Z,12.73
2017-11-29T19:58:59.233Z,12.10
2017-11-29T20:01:27.925Z,11.00
2017-11-29T20:03:56.601Z,10.60
2017-11-29T20:06:25.281Z,9.83
2017-11-29T20:08:53.958Z,10.07
2017-11-29T20:11:21.881Z,9.13
2017-11-29T20:13:49.828Z,11.00
2017-11-29T20:16:17.768Z,12.73
2017-11-29T20:18:46.450Z,14.20
2017-11-29T20:21:14.444Z,15.87
2017-11-29T20:23:42.365Z,13.60
2017-11-29T20:26:10.493Z,14.03
2017-11-29T20:28:38.399Z,17.37
2017-11-29T20:31:06.302Z,15.77
2017-11-29T20:33:34.966Z,16.13
2017-11-29T20:36:02.631Z,15.17
2017-11-29T20:38:30.229Z,13.50
2017-11-29T20:40:57.835Z,13.93
2017-11-29T20:43:25.447Z,14.93
2017-11-29T20:45:53.055Z,15.13
2017-11-29T20:48:20.694Z,14.33
2017-11-29T20:50:48.345Z,13.47
2017-11-29T20:53:15.982Z,13.60
2017-11-29T20:55:43.592Z,12.37
2017-11-29T20:58:11.996Z,13.37
2017-11-29T21:00:39.623Z,12.37
2017-11-29T21:03:08.040Z,11.90
2017-11-29T21:05:35.635Z,9.83
2017-11-29T21:08:04.496Z,10.93
2017-11-29T21:10:32.091Z,9.43
2017-11-29T21:12:59.732Z,9.37
2017-11-29T21:15:27.375Z,11.87
2017-11-29T21:17:54.988Z,10.67
2017-11-29T21:20:22.824Z,10.03
2017-11-29T21:22:50.439Z,9.60
2017-11-29T21:25:18.057Z,9.47
2017-11-29T21:27:45.705Z,12.97
2017-11-29T21:30:13.322Z,14.37
2017-11-29T21:32:41.776Z,13.90
2017-11-29T21:35:09.388Z,13.27
2017-11-29T21:37:36.979Z,12.17
2017-11-29T21:40:04.625Z,15.27
2017-11-29T21:42:32.231Z,15.30
2017-11-29T21:45:00.647Z,12.97
2017-11-29T21:47:28.268Z,14.67
2017-11-29T21:49:56.667Z,15.67
2017-11-29T21:52:24.265Z,14.53
2017-11-29T21:54:51.883Z,12.97
2017-11-29T21:57:19.509Z,15.33
2017-11-29T21:59:47.130Z,21.63
2017-11-29T22:02:14.749Z,19.53
2017-11-29T22:04:43.149Z,18.47
2017-11-29T22:07:11.651Z,18.70
2017-11-29T22:09:39.293Z,14.97
2017-11-29T22:12:06.923Z,12.93
2017-11-29T22:14:34.597Z,11.80
2017-11-29T22:17:02.980Z,12.07
2017-11-29T22:19:31.351Z,10.57
2017-11-29T22:21:58.987Z,11.20
2017-11-29T22:24:26.587Z,10.33
2017-11-29T22:26:54.260Z,10.37
2017-11-29T22:29:21.869Z,11.47
2017-11-29T22:31:49.497Z,11.37
2017-11-29T22:34:17.123Z,10.43
2017-11-29T22:36:45.544Z,10.03
2017-11-29T22:39:13.151Z,10.10
2017-11-29T22:41:41.542Z,10.60
2017-11-29T22:44:09.944Z,13.07
2017-11-29T22:46:39.356Z,14.17
2017-11-29T22:49:06.968Z,13.00
2017-11-29T22:51:34.595Z,13.87
2017-11-29T22:54:02.207Z,12.67
2017-11-29T22:56:29.846Z,12.87
2017-11-29T22:59:00.185Z,13.43
2017-11-29T23:01:28.561Z,12.43
2017-11-29T23:03:56.956Z,12.17
2017-11-29T23:06:25.315Z,13.67
2017-11-29T23:08:53.708Z,12.90
2017-11-29T23:11:22.084Z,15.03
2017-11-29T23:13:50.536Z,13.63
2017-11-29T23:16:18.132Z,14.10
2017-11-29T23:18:45.827Z,13.77
2017-11-29T23:21:13.431Z,14.33
2017-11-29T23:23:41.821Z,13.40
2017-11-29T23:26:10.192Z,13.10
2017-11-29T23:28:37.859Z,14.57
2017-11-29T23:31:06.096Z,14.03
2017-11-29T23:33:33.727Z,14.90
2017-11-29T23:36:01.335Z,13.43
2017-11-29T23:38:28.960Z,14.27
2017-11-29T23:40:56.555Z,14.83
2017-11-29T23:43:24.180Z,14.80
2017-11-29T23:45:51.782Z,14.13
2017-11-29T23:48:19.374Z,15.23
2017-11-29T23:50:46.991Z,15.37
2017-11-29T23:53:14.575Z,16.73
2017-11-29T23:55:42.953Z,13.30
2017-11-29T23:58:11.311Z,14.10
